バンクーバー の空港の天気 - METARとTAF

バンクーバー国際空港 ( CYVR / YVR ) - カナダ ブリティッシュコロンビア州バンクーバー
飛行場実況気象(Metar)
観測時間12/03 05:32 PST (12/03 13:32 UTC)
風向・風速静穏 0m/s
視程800m
天気現象氷霧
全天の4割程度の雲 雲底高度 6100m
気温-1℃
湿度100%
気圧1024.2hPa
METARCYVR 031332Z 00000KT 1/2SM R08L/2600V6000FT/D R26L/3000VP6000FT/U FZFG SCT200 M01/M01 A3024 RMK CC3 VIS S 3/4 ROOF TOP VIS N 15 SLP242
過去の天気等 Google飛行場航空写真 Wunderground天気予報

過去48時間のMETAR

飛行場予報(TAF)
発表時間: 12/03 04:15 PST (12/03 12:15 UTC)
予報対象時間: 3日4時 PST ~ 4日10時 PST
風向・風速不定 2m/s
視程10km以上
天気現象もや
少しの雲 雲底高度 90m
全天の8割程度の雲 雲底高度 6100m
3日4時 PST ~ 3日10時 PST に一時的に
視程400m
天気現象氷霧
全天の4割程度の雲 雲底高度 90m
全天の4割程度の雲 雲底高度 6100m
3日10時 PST から
風向・風速東 4m/s
視程10km以上
全天の4割程度の雲 雲底高度 2130m
全天の8割程度の雲 雲底高度 3660m
3日16時 PST から
風向・風速東 4m/s
視程10km以上
全天の8割程度の雲 雲底高度 2130m
4日0時 PST から
風向・風速不定 2m/s
視程10km以上
全天の8割程度の雲 雲底高度 1520m
4日8時 PST から
風向・風速東 3m/s
視程10km以上
全天の4割程度の雲 雲底高度 1520m
TAF AMD CYVR 031215Z 0312/0418 VRB03KT 6SM BR FEW003 BKN200
TEMPO 0312/0318 1/4SM FZFG SCT003 SCT200
FM031800 09007KT P6SM SCT070 BKN120
FM040000 09007KT P6SM BKN070
FM040800 VRB03KT P6SM BKN050
FM041600 09005KT P6SM SCT050 RMK NXT FCST BY 031500Z